sensor_id;sensor_type;location;lat;lon;timestamp;pressure;altitude;pressure_sealevel;temperature;humidity
4022;BME280;2025;48.260;16.432;2022-07-09T00:01:40;100715.97;;;16.42;100.00
4022;BME280;2025;48.260;16.432;2022-07-09T00:04:09;100715.97;;;16.40;100.00
4022;BME280;2025;48.260;16.432;2022-07-09T00:06:36;100709.78;;;16.38;100.00
4022;BME280;2025;48.260;16.432;2022-07-09T00:09:03;100720.38;;;16.38;100.00
4022;BME280;2025;48.260;16.432;2022-07-09T00:11:30;100717.72;;;16.40;100.00
4022;BME280;2025;48.260;16.432;2022-07-09T00:13:57;100724.78;;;16.36;100.00
4022;BME280;2025;48.260;16.432;2022-07-09T00:16:24;100723.91;;;16.37;100.00
4022;BME280;2025;48.260;16.432;2022-07-09T00:18:51;100715.06;;;16.32;100.00
4022;BME280;2025;48.260;16.432;2022-07-09T00:21:20;100716.84;;;16.34;100.00
4022;BME280;2025;48.260;16.432;2022-07-09T00:23:47;100716.84;;;16.38;100.00
4022;BME280;2025;48.260;16.432;2022-07-09T00:26:14;100701.84;;;16.46;100.00
4022;BME280;2025;48.260;16.432;2022-07-09T00:28:41;100708.03;;;16.45;100.00
4022;BME280;2025;48.260;16.432;2022-07-09T00:31:08;100698.31;;;16.42;100.00
4022;BME280;2025;48.260;16.432;2022-07-09T00:33:35;100711.56;;;16.42;100.00
4022;BME280;2025;48.260;16.432;2022-07-09T00:36:02;100698.31;;;16.48;100.00
4022;BME280;2025;48.260;16.432;2022-07-09T00:38:31;100701.84;;;16.44;100.00
4022;BME280;2025;48.260;16.432;2022-07-09T00:40:58;100700.09;;;16.43;100.00
4022;BME280;2025;48.260;16.432;2022-07-09T00:43:24;100687.75;;;16.41;100.00
4022;BME280;2025;48.260;16.432;2022-07-09T00:45:51;100698.31;;;16.41;100.00
4022;BME280;2025;48.260;16.432;2022-07-09T00:48:19;100703.63;;;16.38;100.00
4022;BME280;2025;48.260;16.432;2022-07-09T00:50:46;100702.72;;;16.37;100.00
4022;BME280;2025;48.260;16.432;2022-07-09T00:53:15;100700.09;;;16.37;100.00
4022;BME280;2025;48.260;16.432;2022-07-09T00:55:46;100702.72;;;16.35;100.00
4022;BME280;2025;48.260;16.432;2022-07-09T00:58:15;100698.31;;;16.36;100.00
4022;BME280;2025;48.260;16.432;2022-07-09T01:00:43;100690.41;;;16.33;100.00
4022;BME280;2025;48.260;16.432;2022-07-09T01:03:10;100685.97;;;16.29;100.00
4022;BME280;2025;48.260;16.432;2022-07-09T01:05:38;100691.28;;;16.29;100.00
4022;BME280;2025;48.260;16.432;2022-07-09T01:08:06;100685.97;;;16.33;100.00
4022;BME280;2025;48.260;16.432;2022-07-09T01:10:34;100682.47;;;16.30;100.00
4022;BME280;2025;48.260;16.432;2022-07-09T01:13:03;100685.09;;;16.27;100.00
4022;BME280;2025;48.260;16.432;2022-07-09T01:15:31;100683.34;;;16.30;100.00
4022;BME280;2025;48.260;16.432;2022-07-09T01:17:58;100682.47;;;16.27;100.00
4022;BME280;2025;48.260;16.432;2022-07-09T01:20:27;100675.41;;;16.33;100.00
4022;BME280;2025;48.260;16.432;2022-07-09T01:22:55;100682.47;;;16.33;100.00
4022;BME280;2025;48.260;16.432;2022-07-09T01:25:28;100682.47;;;16.36;100.00
4022;BME280;2025;48.260;16.432;2022-07-09T01:27:58;100673.66;;;16.31;100.00
4022;BME280;2025;48.260;16.432;2022-07-09T01:30:26;100677.16;;;16.33;100.00
4022;BME280;2025;48.260;16.432;2022-07-09T01:32:53;100683.34;;;16.32;100.00
4022;BME280;2025;48.260;16.432;2022-07-09T01:35:21;100678.06;;;16.30;100.00
4022;BME280;2025;48.260;16.432;2022-07-09T01:37:49;100676.28;;;16.32;100.00
4022;BME280;2025;48.260;16.432;2022-07-09T01:40:16;100663.06;;;16.32;100.00
4022;BME280;2025;48.260;16.432;2022-07-09T01:42:43;100673.66;;;16.28;100.00
4022;BME280;2025;48.260;16.432;2022-07-09T01:45:11;100667.47;;;16.29;100.00
4022;BME280;2025;48.260;16.432;2022-07-09T01:47:38;100659.53;;;16.26;100.00
4022;BME280;2025;48.260;16.432;2022-07-09T01:50:06;100652.47;;;16.28;100.00
4022;BME280;2025;48.260;16.432;2022-07-09T01:52:34;100653.38;;;16.22;100.00
4022;BME280;2025;48.260;16.432;2022-07-09T01:55:04;100656.00;;;16.27;100.00
4022;BME280;2025;48.260;16.432;2022-07-09T01:57:31;100648.97;;;16.32;100.00
4022;BME280;2025;48.260;16.432;2022-07-09T01:59:58;100647.19;;;16.35;100.00
4022;BME280;2025;48.260;16.432;2022-07-09T02:02:25;100647.19;;;16.25;100.00
4022;BME280;2025;48.260;16.432;2022-07-09T02:04:52;100648.94;;;16.33;100.00
4022;BME280;2025;48.260;16.432;2022-07-09T02:07:20;100652.47;;;16.37;100.00
4022;BME280;2025;48.260;16.432;2022-07-09T02:09:47;100659.53;;;16.40;100.00
4022;BME280;2025;48.260;16.432;2022-07-09T02:12:16;100653.34;;;16.36;100.00
4022;BME280;2025;48.260;16.432;2022-07-09T02:14:47;100653.38;;;16.33;100.00
4022;BME280;2025;48.260;16.432;2022-07-09T02:17:15;100651.59;;;16.27;100.00
4022;BME280;2025;48.260;16.432;2022-07-09T02:19:42;100647.19;;;16.25;100.00
4022;BME280;2025;48.260;16.432;2022-07-09T02:22:09;100650.72;;;16.24;100.00
4022;BME280;2025;48.260;16.432;2022-07-09T02:24:36;100658.66;;;16.27;100.00
4022;BME280;2025;48.260;16.432;2022-07-09T02:27:04;100657.78;;;16.25;100.00
4022;BME280;2025;48.260;16.432;2022-07-09T02:29:32;100655.13;;;16.26;100.00
4022;BME280;2025;48.260;16.432;2022-07-09T02:31:59;100653.38;;;16.24;100.00
4022;BME280;2025;48.260;16.432;2022-07-09T02:34:26;100647.19;;;16.25;100.00
4022;BME280;2025;48.260;16.432;2022-07-09T02:36:53;100641.03;;;16.26;100.00
4022;BME280;2025;48.260;16.432;2022-07-09T02:39:20;100643.66;;;16.29;100.00
4022;BME280;2025;48.260;16.432;2022-07-09T02:41:47;100645.44;;;16.31;100.00
4022;BME280;2025;48.260;16.432;2022-07-09T02:44:14;100637.47;;;16.42;100.00
4022;BME280;2025;48.260;16.432;2022-07-09T02:46:42;100637.47;;;16.45;100.00
4022;BME280;2025;48.260;16.432;2022-07-09T02:49:09;100633.06;;;16.47;100.00
4022;BME280;2025;48.260;16.432;2022-07-09T02:51:36;100635.69;;;16.56;100.00
4022;BME280;2025;48.260;16.432;2022-07-09T02:54:04;100635.69;;;16.58;100.00
4022;BME280;2025;48.260;16.432;2022-07-09T02:56:31;100635.69;;;16.64;100.00
4022;BME280;2025;48.260;16.432;2022-07-09T02:58:58;100631.31;;;16.67;100.00
4022;BME280;2025;48.260;16.432;2022-07-09T03:01:25;100625.09;;;16.64;100.00
4022;BME280;2025;48.260;16.432;2022-07-09T03:03:53;100619.81;;;16.68;100.00
4022;BME280;2025;48.260;16.432;2022-07-09T03:06:21;100629.53;;;16.71;100.00
4022;BME280;2025;48.260;16.432;2022-07-09T03:08:48;100631.28;;;16.77;100.00
4022;BME280;2025;48.260;16.432;2022-07-09T03:11:15;100624.22;;;16.76;100.00
4022;BME280;2025;48.260;16.432;2022-07-09T03:13:57;100625.09;;;16.82;100.00
4022;BME280;2025;48.260;16.432;2022-07-09T03:16:31;100625.09;;;16.78;100.00
4022;BME280;2025;48.260;16.432;2022-07-09T03:19:00;100623.31;;;16.80;100.00
4022;BME280;2025;48.260;16.432;2022-07-09T03:21:27;100620.69;;;16.80;100.00
4022;BME280;2025;48.260;16.432;2022-07-09T03:23:54;100618.03;;;16.81;100.00
4022;BME280;2025;48.260;16.432;2022-07-09T03:26:21;100629.50;;;16.82;100.00
4022;BME280;2025;48.260;16.432;2022-07-09T03:28:48;100623.31;;;16.84;100.00
4022;BME280;2025;48.260;16.432;2022-07-09T03:31:15;100618.91;;;16.85;100.00
4022;BME280;2025;48.260;16.432;2022-07-09T03:33:45;100617.13;;;16.90;100.00
4022;BME280;2025;48.260;16.432;2022-07-09T03:36:20;100625.94;;;16.87;100.00
4022;BME280;2025;48.260;16.432;2022-07-09T03:38:47;100623.28;;;16.90;100.00
4022;BME280;2025;48.260;16.432;2022-07-09T03:41:13;100622.41;;;16.91;100.00
4022;BME280;2025;48.260;16.432;2022-07-09T03:43:41;100625.06;;;16.88;100.00
4022;BME280;2025;48.260;16.432;2022-07-09T03:46:08;100627.69;;;16.96;100.00
4022;BME280;2025;48.260;16.432;2022-07-09T03:48:35;100628.56;;;16.95;100.00
4022;BME280;2025;48.260;16.432;2022-07-09T03:51:02;100622.38;;;17.00;100.00
4022;BME280;2025;48.260;16.432;2022-07-09T03:53:30;100627.66;;;16.99;100.00
4022;BME280;2025;48.260;16.432;2022-07-09T03:55:57;100622.38;;;16.99;100.00
4022;BME280;2025;48.260;16.432;2022-07-09T03:58:24;100625.00;;;17.02;100.00
4022;BME280;2025;48.260;16.432;2022-07-09T04:00:51;100625.03;;;16.97;100.00
4022;BME280;2025;48.260;16.432;2022-07-09T04:03:20;100626.81;;;16.95;100.00
4022;BME280;2025;48.260;16.432;2022-07-09T04:05:47;100630.28;;;17.08;100.00
4022;BME280;2025;48.260;16.432;2022-07-09T04:08:28;100626.75;;;17.06;100.00
4022;BME280;2025;48.260;16.432;2022-07-09T04:10:59;100627.63;;;17.13;100.00
4022;BME280;2025;48.260;16.432;2022-07-09T04:13:27;100624.06;;;17.17;100.00
4022;BME280;2025;48.260;16.432;2022-07-09T04:15:54;100620.50;;;17.21;100.00
4022;BME280;2025;48.260;16.432;2022-07-09T04:18:20;100632.84;;;17.26;100.00
4022;BME280;2025;48.260;16.432;2022-07-09T04:20:47;100626.66;;;17.35;100.00
4022;BME280;2025;48.260;16.432;2022-07-09T04:23:14;100628.41;;;17.38;100.00
4022;BME280;2025;48.260;16.432;2022-07-09T04:25:42;100624.81;;;17.49;100.00
4022;BME280;2025;48.260;16.432;2022-07-09T04:28:10;100622.16;;;17.52;100.00
4022;BME280;2025;48.260;16.432;2022-07-09T04:30:37;100629.13;;;17.64;100.00
4022;BME280;2025;48.260;16.432;2022-07-09T04:33:04;100635.28;;;17.75;100.00
4022;BME280;2025;48.260;16.432;2022-07-09T04:35:31;100626.41;;;17.82;100.00
4022;BME280;2025;48.260;16.432;2022-07-09T04:37:58;100624.59;;;17.89;100.00
4022;BME280;2025;48.260;16.432;2022-07-09T04:40:25;100623.69;;;17.90;100.00
4022;BME280;2025;48.260;16.432;2022-07-09T04:42:52;100633.56;;;17.70;100.00
4022;BME280;2025;48.260;16.432;2022-07-09T04:45:21;100624.78;;;17.52;100.00
4022;BME280;2025;48.260;16.432;2022-07-09T04:47:48;100638.09;;;17.45;100.00
4022;BME280;2025;48.260;16.432;2022-07-09T04:50:15;100630.13;;;17.45;100.00
4022;BME280;2025;48.260;16.432;2022-07-09T04:52:42;100634.53;;;17.46;100.00
4022;BME280;2025;48.260;16.432;2022-07-09T04:55:10;100634.53;;;17.46;100.00
4022;BME280;2025;48.260;16.432;2022-07-09T04:57:37;100632.81;;;17.40;100.00
4022;BME280;2025;48.260;16.432;2022-07-09T05:00:05;100626.63;;;17.41;100.00
4022;BME280;2025;48.260;16.432;2022-07-09T05:02:34;100639.84;;;17.46;100.00
4022;BME280;2025;48.260;16.432;2022-07-09T05:05:01;100631.88;;;17.49;100.00
4022;BME280;2025;48.260;16.432;2022-07-09T05:07:29;100636.19;;;17.65;100.00
4022;BME280;2025;48.260;16.432;2022-07-09T05:09:56;100626.50;;;17.64;100.00
4022;BME280;2025;48.260;16.432;2022-07-09T05:12:23;100629.13;;;17.73;100.00
4022;BME280;2025;48.260;16.432;2022-07-09T05:14:50;100640.50;;;17.86;100.00
4022;BME280;2025;48.260;16.432;2022-07-09T05:17:17;100632.50;;;17.92;100.00
4022;BME280;2025;48.260;16.432;2022-07-09T05:19:46;100630.75;;;17.92;100.00
4022;BME280;2025;48.260;16.432;2022-07-09T05:22:14;100632.34;;;18.12;100.00
4022;BME280;2025;48.260;16.432;2022-07-09T05:24:42;100634.06;;;18.17;100.00
4022;BME280;2025;48.260;16.432;2022-07-09T05:27:09;100635.75;;;18.26;100.00
4022;BME280;2025;48.260;16.432;2022-07-09T05:29:36;100630.41;;;18.32;100.00
4022;BME280;2025;48.260;16.432;2022-07-09T05:32:04;100634.66;;;18.48;100.00
4022;BME280;2025;48.260;16.432;2022-07-09T05:34:31;100632.22;;;18.25;100.00
4022;BME280;2025;48.260;16.432;2022-07-09T05:37:02;100642.66;;;18.45;100.00
4022;BME280;2025;48.260;16.432;2022-07-09T05:39:38;100636.47;;;18.46;100.00
4022;BME280;2025;48.260;16.432;2022-07-09T05:42:05;100635.50;;;18.53;100.00
4022;BME280;2025;48.260;16.432;2022-07-09T05:44:35;100640.66;;;18.72;100.00
4022;BME280;2025;48.260;16.432;2022-07-09T05:47:16;100633.53;;;18.77;100.00
4022;BME280;2025;48.260;16.432;2022-07-09T05:49:43;100628.22;;;18.77;100.00
4022;BME280;2025;48.260;16.432;2022-07-09T05:52:11;100631.66;;;18.85;100.00
4022;BME280;2025;48.260;16.432;2022-07-09T05:54:38;100631.72;;;18.79;100.00
4022;BME280;2025;48.260;16.432;2022-07-09T05:57:06;100631.00;;;18.60;100.00
4022;BME280;2025;48.260;16.432;2022-07-09T05:59:33;100639.94;;;18.51;100.00
4022;BME280;2025;48.260;16.432;2022-07-09T06:02:00;100626.59;;;18.62;100.00
4022;BME280;2025;48.260;16.432;2022-07-09T06:04:32;100628.19;;;18.80;100.00
4022;BME280;2025;48.260;16.432;2022-07-09T06:07:32;100628.88;;;18.97;100.00
4022;BME280;2025;48.260;16.432;2022-07-09T06:10:02;100625.19;;;19.10;100.00
4022;BME280;2025;48.260;16.432;2022-07-09T06:12:29;100626.13;;;19.05;100.00
4022;BME280;2025;48.260;16.432;2022-07-09T06:14:56;100622.38;;;19.22;100.00
4022;BME280;2025;48.260;16.432;2022-07-09T06:17:23;100619.66;;;19.27;100.00
4022;BME280;2025;48.260;16.432;2022-07-09T06:19:51;100619.72;;;19.22;100.00
4022;BME280;2025;48.260;16.432;2022-07-09T06:22:19;100622.13;;;19.41;100.00
4022;BME280;2025;48.260;16.432;2022-07-09T06:24:47;100625.06;;;19.21;100.00
4022;BME280;2025;48.260;16.432;2022-07-09T06:27:14;100620.47;;;19.34;100.00
4022;BME280;2025;48.260;16.432;2022-07-09T06:29:41;100623.81;;;19.46;100.00
4022;BME280;2025;48.260;16.432;2022-07-09T06:32:08;100614.28;;;19.32;100.00
4022;BME280;2025;48.260;16.432;2022-07-09T06:34:35;100615.16;;;19.34;100.00
4022;BME280;2025;48.260;16.432;2022-07-09T06:37:02;100611.63;;;19.32;100.00
4022;BME280;2025;48.260;16.432;2022-07-09T06:39:31;100614.06;;;19.47;100.00
4022;BME280;2025;48.260;16.432;2022-07-09T06:42:15;100614.00;;;19.51;100.00
4022;BME280;2025;48.260;16.432;2022-07-09T06:44:43;100605.06;;;19.60;100.00
4022;BME280;2025;48.260;16.432;2022-07-09T06:47:10;100597.66;;;19.79;100.00
4022;BME280;2025;48.260;16.432;2022-07-09T06:49:37;100606.16;;;20.02;100.00
4022;BME280;2025;48.260;16.432;2022-07-09T06:52:05;100595.69;;;19.92;100.00
4022;BME280;2025;48.260;16.432;2022-07-09T06:54:34;100601.63;;;20.09;100.00
4022;BME280;2025;48.260;16.432;2022-07-09T06:57:02;100594.91;;;20.37;100.00
4022;BME280;2025;48.260;16.432;2022-07-09T06:59:29;100589.97;;;20.16;100.00
4022;BME280;2025;48.260;16.432;2022-07-09T07:01:56;100595.81;;;20.36;100.00
4022;BME280;2025;48.260;16.432;2022-07-09T07:04:23;100586.47;;;20.62;100.00
4022;BME280;2025;48.260;16.432;2022-07-09T07:06:51;100591.22;;;20.92;100.00
4022;BME280;2025;48.260;16.432;2022-07-09T07:09:18;100579.41;;;21.05;100.00
4022;BME280;2025;48.260;16.432;2022-07-09T07:11:48;100578.75;;;20.94;100.00
4022;BME280;2025;48.260;16.432;2022-07-09T07:14:15;100586.53;;;20.59;100.00
4022;BME280;2025;48.260;16.432;2022-07-09T07:16:43;100586.78;;;20.46;100.00
4022;BME280;2025;48.260;16.432;2022-07-09T07:19:34;100577.31;;;20.29;100.00
4022;BME280;2025;48.260;16.432;2022-07-09T07:22:05;100586.47;;;20.62;100.00
4022;BME280;2025;48.260;16.432;2022-07-09T07:24:38;100577.78;;;20.98;100.00
4022;BME280;2025;48.260;16.432;2022-07-09T07:27:17;100581.34;;;20.97;100.00
4022;BME280;2025;48.260;16.432;2022-07-09T07:29:52;100576.06;;;20.96;100.00
4022;BME280;2025;48.260;16.432;2022-07-09T07:32:21;100587.78;;;20.87;100.00
4022;BME280;2025;48.260;16.432;2022-07-09T07:34:53;100581.88;;;20.70;100.00
4022;BME280;2025;48.260;16.432;2022-07-09T07:37:22;100581.00;;;20.69;100.00
4022;BME280;2025;48.260;16.432;2022-07-09T07:39:51;100570.59;;;21.02;100.00
4022;BME280;2025;48.260;16.432;2022-07-09T07:42:26;100577.72;;;21.43;100.00
4022;BME280;2025;48.260;16.432;2022-07-09T07:45:04;100575.25;;;21.72;100.00
4022;BME280;2025;48.260;16.432;2022-07-09T07:47:36;100575.72;;;21.53;100.00
4022;BME280;2025;48.260;16.432;2022-07-09T07:50:10;100582.25;;;20.96;100.00
4022;BME280;2025;48.260;16.432;2022-07-09T07:53:04;100583.38;;;20.86;100.00
4022;BME280;2025;48.260;16.432;2022-07-09T07:55:36;100574.97;;;20.61;100.00
4022;BME280;2025;48.260;16.432;2022-07-09T07:58:06;100586.00;;;20.38;100.00
4022;BME280;2025;48.260;16.432;2022-07-09T08:00:33;100578.94;;;20.37;100.00
4022;BME280;2025;48.260;16.432;2022-07-09T08:03:00;100569.16;;;20.39;100.00
4022;BME280;2025;48.260;16.432;2022-07-09T08:05:27;100579.00;;;20.82;100.00
4022;BME280;2025;48.260;16.432;2022-07-09T08:07:54;100571.09;;;21.21;100.00
4022;BME280;2025;48.260;16.432;2022-07-09T08:10:21;100576.84;;;21.42;98.72
4022;BME280;2025;48.260;16.432;2022-07-09T08:12:50;100572.13;;;21.54;99.80
4022;BME280;2025;48.260;16.432;2022-07-09T08:15:18;100571.69;;;21.72;97.40
4022;BME280;2025;48.260;16.432;2022-07-09T08:17:46;100565.06;;;21.88;100.00
4022;BME280;2025;48.260;16.432;2022-07-09T08:20:13;100559.63;;;21.93;96.07
4022;BME280;2025;48.260;16.432;2022-07-09T08:25:53;100559.38;;;21.66;100.00
4022;BME280;2025;48.260;16.432;2022-07-09T08:28:40;100553.94;;;21.34;100.00
4022;BME280;2025;48.260;16.432;2022-07-09T08:34:41;100562.75;;;21.37;100.00
4022;BME280;2025;48.260;16.432;2022-07-09T08:37:17;100554.50;;;21.48;100.00
4022;BME280;2025;48.260;16.432;2022-07-09T08:39:55;100554.81;;;21.71;100.00
4022;BME280;2025;48.260;16.432;2022-07-09T08:42:52;100542.69;;;21.94;100.00
4022;BME280;2025;48.260;16.432;2022-07-09T08:49:16;100541.81;;;21.58;97.76
4022;BME280;2025;48.260;16.432;2022-07-09T08:55:23;100529.22;;;22.34;99.72
4022;BME280;2025;48.260;16.432;2022-07-09T08:57:58;100547.28;;;22.89;100.00
4022;BME280;2025;48.260;16.432;2022-07-09T09:00:44;100537.28;;;22.96;96.88
4022;BME280;2025;48.260;16.432;2022-07-09T09:03:14;100525.38;;;23.06;97.27
4022;BME280;2025;48.260;16.432;2022-07-09T09:06:05;100520.56;;;22.89;98.59
4022;BME280;2025;48.260;16.432;2022-07-09T09:19:41;100518.16;;;22.48;84.25
4022;BME280;2025;48.260;16.432;2022-07-09T09:22:14;100517.41;;;22.10;86.43
4022;BME280;2025;48.260;16.432;2022-07-09T09:24:42;100523.72;;;22.06;100.00
4022;BME280;2025;48.260;16.432;2022-07-09T09:27:09;100513.19;;;22.00;93.50
4022;BME280;2025;48.260;16.432;2022-07-09T09:29:36;100507.47;;;22.48;83.38
4022;BME280;2025;48.260;16.432;2022-07-09T09:32:10;100504.06;;;23.04;72.48
4022;BME280;2025;48.260;16.432;2022-07-09T09:34:39;100501.66;;;22.95;73.63
4022;BME280;2025;48.260;16.432;2022-07-09T09:37:39;100501.94;;;22.86;85.15
4022;BME280;2025;48.260;16.432;2022-07-09T09:43:17;100501.41;;;22.41;87.92
4022;BME280;2025;48.260;16.432;2022-07-09T09:45:49;100504.06;;;22.73;81.37
4022;BME280;2025;48.260;16.432;2022-07-09T09:48:23;100493.06;;;23.14;82.44
4022;BME280;2025;48.260;16.432;2022-07-09T09:50:58;100492.34;;;23.09;85.69
4022;BME280;2025;48.260;16.432;2022-07-09T09:53:35;100486.13;;;23.08;81.64
4022;BME280;2025;48.260;16.432;2022-07-09T09:56:13;100469.94;;;23.41;83.40
4022;BME280;2025;48.260;16.432;2022-07-09T09:58:40;100486.16;;;23.34;90.51
4022;BME280;2025;48.260;16.432;2022-07-09T10:01:08;100474.91;;;22.97;78.54
4022;BME280;2025;48.260;16.432;2022-07-09T10:03:39;100473.94;;;23.27;75.50
4022;BME280;2025;48.260;16.432;2022-07-09T10:06:28;100492.34;;;23.36;74.58
4022;BME280;2025;48.260;16.432;2022-07-09T10:09:19;100478.16;;;23.07;78.97
4022;BME280;2025;48.260;16.432;2022-07-09T10:11:49;100460.03;;;23.16;81.18
4022;BME280;2025;48.260;16.432;2022-07-09T10:14:31;100462.94;;;23.09;74.93
4022;BME280;2025;48.260;16.432;2022-07-09T10:18:16;100471.53;;;23.18;89.48
4022;BME280;2025;48.260;16.432;2022-07-09T10:27:48;100447.06;;;24.10;61.23
4022;BME280;2025;48.260;16.432;2022-07-09T10:30:32;100452.91;;;23.96;62.62
4022;BME280;2025;48.260;16.432;2022-07-09T10:33:21;100437.38;;;23.81;64.37
4022;BME280;2025;48.260;16.432;2022-07-09T10:35:54;100442.53;;;23.60;65.59
4022;BME280;2025;48.260;16.432;2022-07-09T10:38:40;100444.94;;;23.94;69.46
4022;BME280;2025;48.260;16.432;2022-07-09T10:41:28;100439.28;;;23.77;68.10
4022;BME280;2025;48.260;16.432;2022-07-09T10:44:12;100437.44;;;23.79;74.50
4022;BME280;2025;48.260;16.432;2022-07-09T10:47:08;100427.56;;;23.81;70.61
4022;BME280;2025;48.260;16.432;2022-07-09T10:49:45;100434.38;;;23.90;68.00
4022;BME280;2025;48.260;16.432;2022-07-09T10:52:14;100429.84;;;24.17;67.51
4022;BME280;2025;48.260;16.432;2022-07-09T10:54:52;100434.94;;;25.18;65.26
4022;BME280;2025;48.260;16.432;2022-07-09T10:57:21;100445.59;;;24.98;61.38
4022;BME280;2025;48.260;16.432;2022-07-09T11:00:00;100431.78;;;24.61;60.54
4022;BME280;2025;48.260;16.432;2022-07-09T11:02:33;100431.44;;;25.16;64.49
4022;BME280;2025;48.260;16.432;2022-07-09T11:05:00;100417.53;;;25.28;59.70
4022;BME280;2025;48.260;16.432;2022-07-09T11:07:37;100424.63;;;25.07;68.59
4022;BME280;2025;48.260;16.432;2022-07-09T11:10:18;100407.88;;;25.66;69.80
4022;BME280;2025;48.260;16.432;2022-07-09T11:12:47;100408.38;;;25.76;56.05
4022;BME280;2025;48.260;16.432;2022-07-09T11:15:47;100404.56;;;26.02;56.67
4022;BME280;2025;48.260;16.432;2022-07-09T11:18:26;100402.75;;;26.02;56.32
4022;BME280;2025;48.260;16.432;2022-07-09T11:21:27;100396.22;;;26.08;60.27
4022;BME280;2025;48.260;16.432;2022-07-09T11:24:00;100387.09;;;26.12;66.42
4022;BME280;2025;48.260;16.432;2022-07-09T11:26:27;100383.41;;;25.74;52.41
4022;BME280;2025;48.260;16.432;2022-07-09T11:28:55;100370.69;;;25.98;53.36
4022;BME280;2025;48.260;16.432;2022-07-09T11:31:51;100374.31;;;26.17;50.90
4022;BME280;2025;48.260;16.432;2022-07-09T11:34:20;100366.63;;;25.26;51.71
4022;BME280;2025;48.260;16.432;2022-07-09T11:36:58;100369.47;;;25.44;69.75
4022;BME280;2025;48.260;16.432;2022-07-09T11:39:35;100361.47;;;25.42;58.46
4022;BME280;2025;48.260;16.432;2022-07-09T11:42:07;100363.25;;;25.64;60.46
4022;BME280;2025;48.260;16.432;2022-07-09T11:44:34;100356.84;;;25.46;60.70
4022;BME280;2025;48.260;16.432;2022-07-09T11:47:09;100358.75;;;25.02;75.95
4022;BME280;2025;48.260;16.432;2022-07-09T11:49:37;100363.06;;;24.60;76.64
4022;BME280;2025;48.260;16.432;2022-07-09T11:52:16;100363.34;;;24.53;75.16
4022;BME280;2025;48.260;16.432;2022-07-09T11:54:58;100347.00;;;24.12;86.61
4022;BME280;2025;48.260;16.432;2022-07-09T11:57:26;100348.47;;;23.97;81.01
4022;BME280;2025;48.260;16.432;2022-07-09T11:59:53;100336.47;;;24.08;89.04
4022;BME280;2025;48.260;16.432;2022-07-09T12:02:25;100333.00;;;24.30;85.84
4022;BME280;2025;48.260;16.432;2022-07-09T12:04:53;100324.09;;;24.52;98.37
4022;BME280;2025;48.260;16.432;2022-07-09T12:07:20;100332.06;;;24.32;100.00
4022;BME280;2025;48.260;16.432;2022-07-09T12:09:57;100332.13;;;24.30;88.48
4022;BME280;2025;48.260;16.432;2022-07-09T12:12:24;100322.25;;;24.54;100.00
4022;BME280;2025;48.260;16.432;2022-07-09T12:14:51;100316.88;;;24.54;75.96
4022;BME280;2025;48.260;16.432;2022-07-09T12:17:18;100312.03;;;24.85;83.97
4022;BME280;2025;48.260;16.432;2022-07-09T12:19:47;100306.47;;;25.12;84.32
4022;BME280;2025;48.260;16.432;2022-07-09T12:22:14;100315.59;;;25.08;70.82
4022;BME280;2025;48.260;16.432;2022-07-09T12:24:41;100300.03;;;25.56;86.86
4022;BME280;2025;48.260;16.432;2022-07-09T12:27:08;100306.44;;;25.74;74.04
4022;BME280;2025;48.260;16.432;2022-07-09T12:29:35;100308.09;;;25.77;54.31
4022;BME280;2025;48.260;16.432;2022-07-09T12:32:03;100303.06;;;25.89;53.71
4022;BME280;2025;48.260;16.432;2022-07-09T12:34:30;100289.91;;;26.23;71.09
4022;BME280;2025;48.260;16.432;2022-07-09T12:36:59;100278.50;;;26.17;55.26
4022;BME280;2025;48.260;16.432;2022-07-09T12:39:26;100290.84;;;26.21;59.79
4022;BME280;2025;48.260;16.432;2022-07-09T12:41:54;100290.03;;;26.19;51.34
4022;BME280;2025;48.260;16.432;2022-07-09T12:44:21;100284.97;;;26.51;51.66
4022;BME280;2025;48.260;16.432;2022-07-09T12:46:48;100263.22;;;26.38;64.82
4022;BME280;2025;48.260;16.432;2022-07-09T12:49:15;100263.09;;;26.59;59.17
4022;BME280;2025;48.260;16.432;2022-07-09T12:51:42;100255.47;;;26.85;63.98
4022;BME280;2025;48.260;16.432;2022-07-09T12:54:10;100246.13;;;26.75;55.81
4022;BME280;2025;48.260;16.432;2022-07-09T12:56:37;100243.31;;;27.30;57.92
4022;BME280;2025;48.260;16.432;2022-07-09T12:59:05;100240.22;;;27.38;62.57
4022;BME280;2025;48.260;16.432;2022-07-09T13:01:31;100232.38;;;26.64;48.32
4022;BME280;2025;48.260;16.432;2022-07-09T13:03:58;100244.72;;;26.85;45.10
4022;BME280;2025;48.260;16.432;2022-07-09T13:06:25;100240.75;;;26.75;44.79
4022;BME280;2025;48.260;16.432;2022-07-09T13:08:58;100245.00;;;26.62;44.12
4022;BME280;2025;48.260;16.432;2022-07-09T13:11:27;100238.75;;;26.98;48.39
4022;BME280;2025;48.260;16.432;2022-07-09T13:17:19;100238.06;;;27.62;50.29
4022;BME280;2025;48.260;16.432;2022-07-09T13:19:46;100226.19;;;27.66;41.03
4022;BME280;2025;48.260;16.432;2022-07-09T13:22:14;100221.97;;;28.26;56.09
4022;BME280;2025;48.260;16.432;2022-07-09T13:24:41;100214.72;;;28.58;41.87
4022;BME280;2025;48.260;16.432;2022-07-09T13:27:09;100206.50;;;29.05;51.84
4022;BME280;2025;48.260;16.432;2022-07-09T13:32:51;100204.88;;;29.03;37.40
4022;BME280;2025;48.260;16.432;2022-07-09T13:35:55;100194.25;;;29.44;39.29
4022;BME280;2025;48.260;16.432;2022-07-09T13:38:39;100186.94;;;28.26;38.55
4022;BME280;2025;48.260;16.432;2022-07-09T13:41:26;100187.69;;;28.90;37.95
4022;BME280;2025;48.260;16.432;2022-07-09T13:44:09;100191.41;;;28.57;40.68
4022;BME280;2025;48.260;16.432;2022-07-09T13:46:40;100195.25;;;27.90;41.55
4022;BME280;2025;48.260;16.432;2022-07-09T13:49:29;100191.72;;;27.39;43.73
4022;BME280;2025;48.260;16.432;2022-07-09T13:51:59;100185.88;;;26.62;43.07
4022;BME280;2025;48.260;16.432;2022-07-09T13:54:55;100179.84;;;26.40;46.24